sensor_id;sensor_type;location;lat;lon;timestamp;P1;durP1;ratioP1;P2;durP2;ratioP2
52894;SDS011;38759;53.396;6.722;2022-08-01T08:52:35;14.40;;;2.30;;
52894;SDS011;38759;53.396;6.722;2022-08-01T08:55:03;13.63;;;3.00;;
52894;SDS011;38759;53.396;6.722;2022-08-01T08:57:29;18.13;;;3.00;;
52894;SDS011;38759;53.396;6.722;2022-08-01T08:59:55;15.30;;;2.50;;
52894;SDS011;38759;53.396;6.722;2022-08-01T09:02:22;13.95;;;2.30;;
52894;SDS011;38759;53.396;6.722;2022-08-01T09:04:48;13.75;;;2.85;;
52894;SDS011;38759;53.396;6.722;2022-08-01T09:07:14;14.52;;;2.50;;
52894;SDS011;38759;53.396;6.722;2022-08-01T09:09:40;17.55;;;3.03;;
52894;SDS011;38759;53.396;6.722;2022-08-01T09:12:06;14.27;;;2.65;;
52894;SDS011;38759;53.396;6.722;2022-08-01T09:14:31;13.60;;;2.95;;
52894;SDS011;38759;53.396;6.722;2022-08-01T09:19:38;13.52;;;2.88;;
52894;SDS011;38759;53.396;6.722;2022-08-01T09:22:05;13.02;;;2.22;;
52894;SDS011;38759;53.396;6.722;2022-08-01T09:24:32;17.45;;;3.03;;
52894;SDS011;38759;53.396;6.722;2022-08-01T09:26:59;18.80;;;2.80;;
52894;SDS011;38759;53.396;6.722;2022-08-01T09:29:29;13.35;;;2.85;;
52894;SDS011;38759;53.396;6.722;2022-08-01T09:31:56;10.52;;;2.65;;
52894;SDS011;38759;53.396;6.722;2022-08-01T09:34:27;12.88;;;2.35;;
52894;SDS011;38759;53.396;6.722;2022-08-01T09:36:58;13.20;;;2.72;;
52894;SDS011;38759;53.396;6.722;2022-08-01T09:39:27;16.30;;;2.42;;
52894;SDS011;38759;53.396;6.722;2022-08-01T09:41:58;14.52;;;2.10;;
52894;SDS011;38759;53.396;6.722;2022-08-01T09:44:39;15.05;;;2.40;;
52894;SDS011;38759;53.396;6.722;2022-08-01T09:47:06;12.43;;;2.22;;
52894;SDS011;38759;53.396;6.722;2022-08-01T09:49:33;12.20;;;2.17;;
52894;SDS011;38759;53.396;6.722;2022-08-01T09:52:15;10.57;;;2.25;;
52894;SDS011;38759;53.396;6.722;2022-08-01T09:54:53;12.77;;;2.60;;
52894;SDS011;38759;53.396;6.722;2022-08-01T09:57:27;10.70;;;2.28;;
52894;SDS011;38759;53.396;6.722;2022-08-01T09:59:55;16.35;;;2.35;;
52894;SDS011;38759;53.396;6.722;2022-08-01T10:02:26;11.77;;;2.03;;
52894;SDS011;38759;53.396;6.722;2022-08-01T10:05:01;10.45;;;2.00;;
52894;SDS011;38759;53.396;6.722;2022-08-01T10:07:31;12.55;;;1.95;;
52894;SDS011;38759;53.396;6.722;2022-08-01T10:10:18;10.77;;;2.17;;
52894;SDS011;38759;53.396;6.722;2022-08-01T10:12:43;9.38;;;2.20;;
52894;SDS011;38759;53.396;6.722;2022-08-01T10:15:09;11.43;;;2.10;;
52894;SDS011;38759;53.396;6.722;2022-08-01T10:17:37;12.50;;;2.50;;
52894;SDS011;38759;53.396;6.722;2022-08-01T10:20:04;14.05;;;2.28;;
52894;SDS011;38759;53.396;6.722;2022-08-01T10:22:31;9.93;;;2.28;;
52894;SDS011;38759;53.396;6.722;2022-08-01T10:24:58;9.80;;;2.17;;
52894;SDS011;38759;53.396;6.722;2022-08-01T10:27:28;11.30;;;2.53;;
52894;SDS011;38759;53.396;6.722;2022-08-01T10:29:58;14.25;;;2.03;;
52894;SDS011;38759;53.396;6.722;2022-08-01T10:32:33;11.48;;;2.20;;
52894;SDS011;38759;53.396;6.722;2022-08-01T10:35:00;12.95;;;2.35;;
52894;SDS011;38759;53.396;6.722;2022-08-01T10:37:28;8.48;;;1.73;;
52894;SDS011;38759;53.396;6.722;2022-08-01T10:39:54;10.15;;;2.08;;
52894;SDS011;38759;53.396;6.722;2022-08-01T10:42:21;8.48;;;1.67;;
52894;SDS011;38759;53.396;6.722;2022-08-01T10:44:47;12.00;;;1.75;;
52894;SDS011;38759;53.396;6.722;2022-08-01T10:47:14;7.68;;;1.90;;
52894;SDS011;38759;53.396;6.722;2022-08-01T10:49:54;7.90;;;1.92;;
52894;SDS011;38759;53.396;6.722;2022-08-01T10:52:26;8.15;;;1.80;;
52894;SDS011;38759;53.396;6.722;2022-08-01T10:55:02;16.85;;;2.88;;
52894;SDS011;38759;53.396;6.722;2022-08-01T10:57:46;11.25;;;2.25;;
52894;SDS011;38759;53.396;6.722;2022-08-01T11:00:22;9.98;;;2.03;;
52894;SDS011;38759;53.396;6.722;2022-08-01T11:03:00;8.35;;;1.77;;
52894;SDS011;38759;53.396;6.722;2022-08-01T11:05:30;10.50;;;1.95;;
52894;SDS011;38759;53.396;6.722;2022-08-01T11:07:58;11.65;;;2.25;;
52894;SDS011;38759;53.396;6.722;2022-08-01T11:13:06;9.77;;;2.10;;
52894;SDS011;38759;53.396;6.722;2022-08-01T11:15:33;7.28;;;2.17;;
52894;SDS011;38759;53.396;6.722;2022-08-01T11:18:04;10.30;;;2.15;;
52894;SDS011;38759;53.396;6.722;2022-08-01T11:21:09;11.10;;;2.13;;
52894;SDS011;38759;53.396;6.722;2022-08-01T11:23:46;10.70;;;2.20;;
52894;SDS011;38759;53.396;6.722;2022-08-01T11:26:14;7.72;;;1.70;;
52894;SDS011;38759;53.396;6.722;2022-08-01T11:28:41;9.57;;;1.95;;
52894;SDS011;38759;53.396;6.722;2022-08-01T11:41:13;6.25;;;1.40;;
52894;SDS011;38759;53.396;6.722;2022-08-01T11:49:47;9.95;;;1.77;;
52894;SDS011;38759;53.396;6.722;2022-08-01T11:54:45;8.95;;;1.60;;
52894;SDS011;38759;53.396;6.722;2022-08-01T11:59:47;8.95;;;1.98;;
52894;SDS011;38759;53.396;6.722;2022-08-01T12:02:15;10.13;;;1.80;;
52894;SDS011;38759;53.396;6.722;2022-08-01T12:04:52;9.38;;;1.95;;
52894;SDS011;38759;53.396;6.722;2022-08-01T12:07:23;6.07;;;1.77;;
52894;SDS011;38759;53.396;6.722;2022-08-01T12:12:26;9.43;;;1.83;;
52894;SDS011;38759;53.396;6.722;2022-08-01T12:14:57;6.43;;;1.58;;
52894;SDS011;38759;53.396;6.722;2022-08-01T12:17:27;10.00;;;2.00;;
52894;SDS011;38759;53.396;6.722;2022-08-01T12:20:03;7.43;;;1.67;;
52894;SDS011;38759;53.396;6.722;2022-08-01T12:22:31;7.35;;;1.73;;
52894;SDS011;38759;53.396;6.722;2022-08-01T12:25:04;8.32;;;1.90;;
52894;SDS011;38759;53.396;6.722;2022-08-01T12:27:32;12.18;;;2.08;;
52894;SDS011;38759;53.396;6.722;2022-08-01T12:29:59;7.60;;;1.80;;
52894;SDS011;38759;53.396;6.722;2022-08-01T12:35:05;9.75;;;2.00;;
52894;SDS011;38759;53.396;6.722;2022-08-01T12:37:32;8.68;;;1.83;;
52894;SDS011;38759;53.396;6.722;2022-08-01T12:40:20;9.90;;;1.90;;
52894;SDS011;38759;53.396;6.722;2022-08-01T12:42:54;8.68;;;2.00;;
52894;SDS011;38759;53.396;6.722;2022-08-01T12:45:24;12.93;;;2.35;;
52894;SDS011;38759;53.396;6.722;2022-08-01T12:48:01;12.82;;;2.10;;
52894;SDS011;38759;53.396;6.722;2022-08-01T12:50:32;8.88;;;1.90;;
52894;SDS011;38759;53.396;6.722;2022-08-01T12:52:59;11.20;;;2.00;;
52894;SDS011;38759;53.396;6.722;2022-08-01T12:55:26;9.98;;;1.83;;
52894;SDS011;38759;53.396;6.722;2022-08-01T12:58:05;11.75;;;2.00;;
52894;SDS011;38759;53.396;6.722;2022-08-01T13:00:35;10.45;;;2.05;;
52894;SDS011;38759;53.396;6.722;2022-08-01T13:03:03;12.10;;;1.88;;
52894;SDS011;38759;53.396;6.722;2022-08-01T13:05:49;8.20;;;2.20;;
52894;SDS011;38759;53.396;6.722;2022-08-01T13:10:46;11.20;;;2.40;;
52894;SDS011;38759;53.396;6.722;2022-08-01T13:13:12;9.85;;;1.92;;
52894;SDS011;38759;53.396;6.722;2022-08-01T13:15:40;9.48;;;2.30;;
52894;SDS011;38759;53.396;6.722;2022-08-01T13:21:07;8.10;;;1.80;;
52894;SDS011;38759;53.396;6.722;2022-08-01T13:23:33;9.52;;;2.45;;
52894;SDS011;38759;53.396;6.722;2022-08-01T13:25:59;8.90;;;1.88;;
52894;SDS011;38759;53.396;6.722;2022-08-01T13:28:25;14.70;;;2.22;;
52894;SDS011;38759;53.396;6.722;2022-08-01T13:33:23;13.48;;;2.28;;
52894;SDS011;38759;53.396;6.722;2022-08-01T13:35:53;7.55;;;2.08;;
52894;SDS011;38759;53.396;6.722;2022-08-01T13:38:20;10.90;;;1.95;;
52894;SDS011;38759;53.396;6.722;2022-08-01T13:41:06;10.50;;;1.80;;
52894;SDS011;38759;53.396;6.722;2022-08-01T13:43:32;8.52;;;1.88;;
52894;SDS011;38759;53.396;6.722;2022-08-01T13:45:58;11.52;;;2.40;;
52894;SDS011;38759;53.396;6.722;2022-08-01T13:48:24;7.32;;;1.73;;
52894;SDS011;38759;53.396;6.722;2022-08-01T13:50:50;11.45;;;2.67;;
52894;SDS011;38759;53.396;6.722;2022-08-01T13:53:16;8.05;;;1.90;;
52894;SDS011;38759;53.396;6.722;2022-08-01T13:55:42;9.57;;;1.92;;
52894;SDS011;38759;53.396;6.722;2022-08-01T13:58:08;10.40;;;2.08;;
52894;SDS011;38759;53.396;6.722;2022-08-01T14:00:34;8.63;;;2.20;;
52894;SDS011;38759;53.396;6.722;2022-08-01T14:02:59;12.07;;;2.10;;
52894;SDS011;38759;53.396;6.722;2022-08-01T14:05:25;8.40;;;2.10;;
52894;SDS011;38759;53.396;6.722;2022-08-01T14:07:51;12.82;;;2.08;;
52894;SDS011;38759;53.396;6.722;2022-08-01T14:10:17;9.43;;;1.90;;
52894;SDS011;38759;53.396;6.722;2022-08-01T14:12:43;7.63;;;1.63;;
52894;SDS011;38759;53.396;6.722;2022-08-01T14:15:08;7.75;;;1.80;;
52894;SDS011;38759;53.396;6.722;2022-08-01T14:17:34;9.70;;;1.80;;
52894;SDS011;38759;53.396;6.722;2022-08-01T14:20:00;13.27;;;2.35;;
52894;SDS011;38759;53.396;6.722;2022-08-01T14:22:27;7.45;;;1.80;;
52894;SDS011;38759;53.396;6.722;2022-08-01T14:24:52;10.93;;;1.92;;
52894;SDS011;38759;53.396;6.722;2022-08-01T14:27:18;9.82;;;2.20;;
52894;SDS011;38759;53.396;6.722;2022-08-01T14:29:44;8.07;;;1.65;;
52894;SDS011;38759;53.396;6.722;2022-08-01T14:32:11;10.45;;;1.85;;
52894;SDS011;38759;53.396;6.722;2022-08-01T14:34:37;8.15;;;1.90;;
52894;SDS011;38759;53.396;6.722;2022-08-01T14:37:02;6.13;;;1.67;;
52894;SDS011;38759;53.396;6.722;2022-08-01T14:39:28;12.18;;;2.03;;
52894;SDS011;38759;53.396;6.722;2022-08-01T14:41:54;10.00;;;2.25;;
52894;SDS011;38759;53.396;6.722;2022-08-01T14:44:19;8.70;;;1.65;;
52894;SDS011;38759;53.396;6.722;2022-08-01T14:46:45;8.15;;;1.80;;
52894;SDS011;38759;53.396;6.722;2022-08-01T14:49:13;7.43;;;1.80;;
52894;SDS011;38759;53.396;6.722;2022-08-01T14:51:39;12.68;;;2.22;;
52894;SDS011;38759;53.396;6.722;2022-08-01T14:54:05;8.05;;;1.77;;
52894;SDS011;38759;53.396;6.722;2022-08-01T14:56:31;9.25;;;1.85;;
52894;SDS011;38759;53.396;6.722;2022-08-01T14:58:56;10.02;;;2.03;;
52894;SDS011;38759;53.396;6.722;2022-08-01T15:01:22;8.25;;;1.77;;
52894;SDS011;38759;53.396;6.722;2022-08-01T15:03:48;8.23;;;1.98;;
52894;SDS011;38759;53.396;6.722;2022-08-01T15:06:15;8.10;;;1.80;;
52894;SDS011;38759;53.396;6.722;2022-08-01T15:08:42;5.63;;;1.65;;
52894;SDS011;38759;53.396;6.722;2022-08-01T15:11:08;7.43;;;1.77;;
52894;SDS011;38759;53.396;6.722;2022-08-01T15:13:34;10.90;;;2.38;;
52894;SDS011;38759;53.396;6.722;2022-08-01T15:15:59;9.02;;;2.10;;
52894;SDS011;38759;53.396;6.722;2022-08-01T15:18:26;10.90;;;2.30;;
52894;SDS011;38759;53.396;6.722;2022-08-01T15:20:52;11.68;;;1.90;;
52894;SDS011;38759;53.396;6.722;2022-08-01T15:23:18;8.05;;;1.95;;
52894;SDS011;38759;53.396;6.722;2022-08-01T15:25:44;8.55;;;1.95;;
52894;SDS011;38759;53.396;6.722;2022-08-01T15:28:09;11.18;;;2.20;;
52894;SDS011;38759;53.396;6.722;2022-08-01T15:30:35;8.90;;;2.30;;
52894;SDS011;38759;53.396;6.722;2022-08-01T15:33:01;10.88;;;2.15;;
52894;SDS011;38759;53.396;6.722;2022-08-01T15:35:27;8.00;;;2.00;;
52894;SDS011;38759;53.396;6.722;2022-08-01T15:37:53;9.02;;;2.00;;
52894;SDS011;38759;53.396;6.722;2022-08-01T15:40:18;9.88;;;2.13;;
52894;SDS011;38759;53.396;6.722;2022-08-01T15:42:44;9.48;;;2.00;;
52894;SDS011;38759;53.396;6.722;2022-08-01T15:45:10;7.80;;;1.70;;
52894;SDS011;38759;53.396;6.722;2022-08-01T15:47:38;8.93;;;2.10;;
52894;SDS011;38759;53.396;6.722;2022-08-01T15:50:03;6.68;;;1.83;;
52894;SDS011;38759;53.396;6.722;2022-08-01T15:52:29;9.75;;;2.05;;
52894;SDS011;38759;53.396;6.722;2022-08-01T15:54:55;7.82;;;2.13;;
52894;SDS011;38759;53.396;6.722;2022-08-01T15:57:21;7.18;;;1.80;;
52894;SDS011;38759;53.396;6.722;2022-08-01T15:59:46;7.55;;;1.80;;
52894;SDS011;38759;53.396;6.722;2022-08-01T16:02:12;8.23;;;1.98;;
52894;SDS011;38759;53.396;6.722;2022-08-01T16:04:38;7.95;;;1.65;;
52894;SDS011;38759;53.396;6.722;2022-08-01T16:07:04;6.70;;;2.00;;
52894;SDS011;38759;53.396;6.722;2022-08-01T16:09:30;7.57;;;1.77;;
52894;SDS011;38759;53.396;6.722;2022-08-01T16:11:56;10.70;;;1.88;;
52894;SDS011;38759;53.396;6.722;2022-08-01T16:14:22;9.20;;;2.03;;
52894;SDS011;38759;53.396;6.722;2022-08-01T16:16:47;7.43;;;1.75;;
52894;SDS011;38759;53.396;6.722;2022-08-01T16:19:14;8.13;;;1.88;;
52894;SDS011;38759;53.396;6.722;2022-08-01T16:21:39;6.80;;;1.40;;
52894;SDS011;38759;53.396;6.722;2022-08-01T16:24:05;7.20;;;2.13;;
52894;SDS011;38759;53.396;6.722;2022-08-01T16:26:31;9.82;;;1.88;;
52894;SDS011;38759;53.396;6.722;2022-08-01T16:28:57;5.85;;;1.80;;
52894;SDS011;38759;53.396;6.722;2022-08-01T16:31:22;8.70;;;1.88;;
52894;SDS011;38759;53.396;6.722;2022-08-01T16:33:48;8.52;;;1.88;;
52894;SDS011;38759;53.396;6.722;2022-08-01T16:36:15;10.07;;;2.10;;
52894;SDS011;38759;53.396;6.722;2022-08-01T16:38:41;9.73;;;2.00;;
52894;SDS011;38759;53.396;6.722;2022-08-01T16:41:08;8.85;;;1.80;;
52894;SDS011;38759;53.396;6.722;2022-08-01T16:43:33;8.50;;;1.95;;
52894;SDS011;38759;53.396;6.722;2022-08-01T16:45:59;8.98;;;2.10;;
52894;SDS011;38759;53.396;6.722;2022-08-01T16:48:25;6.93;;;1.90;;
52894;SDS011;38759;53.396;6.722;2022-08-01T16:50:51;9.25;;;2.15;;
52894;SDS011;38759;53.396;6.722;2022-08-01T16:53:20;7.35;;;1.80;;
52894;SDS011;38759;53.396;6.722;2022-08-01T16:55:47;11.70;;;2.10;;
52894;SDS011;38759;53.396;6.722;2022-08-01T16:58:15;11.35;;;2.15;;
52894;SDS011;38759;53.396;6.722;2022-08-01T17:00:41;9.82;;;2.25;;
52894;SDS011;38759;53.396;6.722;2022-08-01T17:03:09;8.05;;;1.98;;
52894;SDS011;38759;53.396;6.722;2022-08-01T17:05:35;10.68;;;2.00;;
52894;SDS011;38759;53.396;6.722;2022-08-01T17:08:01;8.68;;;1.95;;
52894;SDS011;38759;53.396;6.722;2022-08-01T17:10:27;10.10;;;2.00;;
52894;SDS011;38759;53.396;6.722;2022-08-01T17:12:53;8.88;;;1.85;;
52894;SDS011;38759;53.396;6.722;2022-08-01T17:15:19;10.25;;;2.10;;
52894;SDS011;38759;53.396;6.722;2022-08-01T17:17:44;7.32;;;1.60;;
52894;SDS011;38759;53.396;6.722;2022-08-01T17:20:10;9.60;;;2.20;;
52894;SDS011;38759;53.396;6.722;2022-08-01T17:22:36;11.50;;;2.10;;
52894;SDS011;38759;53.396;6.722;2022-08-01T17:25:02;10.93;;;2.00;;
52894;SDS011;38759;53.396;6.722;2022-08-01T17:27:28;8.70;;;2.13;;
52894;SDS011;38759;53.396;6.722;2022-08-01T17:29:53;9.57;;;2.83;;
52894;SDS011;38759;53.396;6.722;2022-08-01T17:32:19;19.13;;;2.75;;
52894;SDS011;38759;53.396;6.722;2022-08-01T17:34:45;13.43;;;2.33;;
52894;SDS011;38759;53.396;6.722;2022-08-01T17:37:10;14.35;;;2.10;;
52894;SDS011;38759;53.396;6.722;2022-08-01T17:39:36;15.85;;;2.38;;
52894;SDS011;38759;53.396;6.722;2022-08-01T17:42:02;10.57;;;2.45;;
52894;SDS011;38759;53.396;6.722;2022-08-01T17:44:28;9.95;;;2.30;;
52894;SDS011;38759;53.396;6.722;2022-08-01T17:46:54;12.18;;;2.03;;
52894;SDS011;38759;53.396;6.722;2022-08-01T17:49:19;10.80;;;1.90;;
52894;SDS011;38759;53.396;6.722;2022-08-01T17:51:46;11.43;;;2.30;;
52894;SDS011;38759;53.396;6.722;2022-08-01T17:54:12;10.15;;;2.13;;
52894;SDS011;38759;53.396;6.722;2022-08-01T17:56:38;8.25;;;1.83;;
52894;SDS011;38759;53.396;6.722;2022-08-01T17:59:04;7.93;;;2.38;;
52894;SDS011;38759;53.396;6.722;2022-08-01T18:01:30;8.73;;;2.13;;
52894;SDS011;38759;53.396;6.722;2022-08-01T18:03:55;12.65;;;2.70;;
52894;SDS011;38759;53.396;6.722;2022-08-01T18:06:22;9.63;;;1.83;;
52894;SDS011;38759;53.396;6.722;2022-08-01T18:08:49;7.40;;;1.70;;
52894;SDS011;38759;53.396;6.722;2022-08-01T18:11:15;8.70;;;2.38;;
52894;SDS011;38759;53.396;6.722;2022-08-01T18:13:41;10.02;;;1.80;;
52894;SDS011;38759;53.396;6.722;2022-08-01T18:16:07;9.45;;;2.10;;
52894;SDS011;38759;53.396;6.722;2022-08-01T18:18:37;13.10;;;3.13;;
52894;SDS011;38759;53.396;6.722;2022-08-01T18:21:03;13.23;;;2.75;;
52894;SDS011;38759;53.396;6.722;2022-08-01T18:23:29;7.82;;;2.03;;
52894;SDS011;38759;53.396;6.722;2022-08-01T18:25:57;9.00;;;1.98;;
52894;SDS011;38759;53.396;6.722;2022-08-01T18:28:26;12.45;;;2.40;;
52894;SDS011;38759;53.396;6.722;2022-08-01T18:30:55;7.43;;;1.80;;
52894;SDS011;38759;53.396;6.722;2022-08-01T18:33:21;9.13;;;2.08;;
52894;SDS011;38759;53.396;6.722;2022-08-01T18:35:47;10.77;;;2.20;;
52894;SDS011;38759;53.396;6.722;2022-08-01T18:38:13;10.27;;;2.63;;
52894;SDS011;38759;53.396;6.722;2022-08-01T18:40:39;10.85;;;2.22;;
52894;SDS011;38759;53.396;6.722;2022-08-01T18:43:04;10.18;;;2.15;;
52894;SDS011;38759;53.396;6.722;2022-08-01T18:45:30;9.73;;;2.22;;
52894;SDS011;38759;53.396;6.722;2022-08-01T18:47:56;7.18;;;2.08;;
52894;SDS011;38759;53.396;6.722;2022-08-01T18:50:23;12.73;;;2.22;;
52894;SDS011;38759;53.396;6.722;2022-08-01T18:52:50;9.43;;;2.55;;
52894;SDS011;38759;53.396;6.722;2022-08-01T18:55:16;10.30;;;3.50;;
52894;SDS011;38759;53.396;6.722;2022-08-01T18:57:42;13.55;;;2.60;;
52894;SDS011;38759;53.396;6.722;2022-08-01T19:00:08;8.57;;;2.35;;
52894;SDS011;38759;53.396;6.722;2022-08-01T19:02:34;12.25;;;2.50;;
52894;SDS011;38759;53.396;6.722;2022-08-01T19:05:00;8.00;;;1.95;;
52894;SDS011;38759;53.396;6.722;2022-08-01T19:07:25;11.60;;;2.40;;
52894;SDS011;38759;53.396;6.722;2022-08-01T19:09:51;10.15;;;2.30;;
52894;SDS011;38759;53.396;6.722;2022-08-01T19:12:17;12.63;;;2.33;;
52894;SDS011;38759;53.396;6.722;2022-08-01T19:14:43;9.15;;;2.58;;
52894;SDS011;38759;53.396;6.722;2022-08-01T19:17:09;12.60;;;2.58;;
52894;SDS011;38759;53.396;6.722;2022-08-01T19:19:34;15.65;;;2.53;;
52894;SDS011;38759;53.396;6.722;2022-08-01T19:22:00;12.45;;;2.75;;
52894;SDS011;38759;53.396;6.722;2022-08-01T19:24:26;10.23;;;2.67;;
52894;SDS011;38759;53.396;6.722;2022-08-01T19:26:59;9.13;;;2.20;;
52894;SDS011;38759;53.396;6.722;2022-08-01T19:29:31;9.85;;;2.50;;
52894;SDS011;38759;53.396;6.722;2022-08-01T19:31:59;13.68;;;2.85;;
52894;SDS011;38759;53.396;6.722;2022-08-01T19:34:25;10.90;;;2.53;;
52894;SDS011;38759;53.396;6.722;2022-08-01T19:36:53;10.90;;;2.40;;
52894;SDS011;38759;53.396;6.722;2022-08-01T19:39:21;9.95;;;2.13;;
52894;SDS011;38759;53.396;6.722;2022-08-01T19:41:50;10.02;;;2.50;;
52894;SDS011;38759;53.396;6.722;2022-08-01T19:44:18;11.55;;;2.30;;
52894;SDS011;38759;53.396;6.722;2022-08-01T19:46:46;11.15;;;2.67;;
52894;SDS011;38759;53.396;6.722;2022-08-01T19:49:14;10.07;;;2.78;;
52894;SDS011;38759;53.396;6.722;2022-08-01T19:52:14;8.35;;;2.33;;
52894;SDS011;38759;53.396;6.722;2022-08-01T19:54:34;10.90;;;2.50;;
52894;SDS011;38759;53.396;6.722;2022-08-01T19:57:02;12.27;;;2.30;;
52894;SDS011;38759;53.396;6.722;2022-08-01T19:59:31;6.70;;;1.83;;
52894;SDS011;38759;53.396;6.722;2022-08-01T20:01:58;8.50;;;2.15;;
52894;SDS011;38759;53.396;6.722;2022-08-01T20:04:25;8.02;;;2.17;;
52894;SDS011;38759;53.396;6.722;2022-08-01T20:06:51;7.50;;;1.90;;
52894;SDS011;38759;53.396;6.722;2022-08-01T20:09:17;10.38;;;2.40;;
52894;SDS011;38759;53.396;6.722;2022-08-01T20:11:44;16.35;;;2.60;;
52894;SDS011;38759;53.396;6.722;2022-08-01T20:14:18;10.45;;;2.10;;
52894;SDS011;38759;53.396;6.722;2022-08-01T20:16:46;12.25;;;2.60;;
52894;SDS011;38759;53.396;6.722;2022-08-01T20:19:12;8.65;;;2.38;;
52894;SDS011;38759;53.396;6.722;2022-08-01T20:21:39;10.20;;;2.20;;
52894;SDS011;38759;53.396;6.722;2022-08-01T20:24:08;13.38;;;2.60;;
52894;SDS011;38759;53.396;6.722;2022-08-01T20:26:38;10.77;;;2.63;;
52894;SDS011;38759;53.396;6.722;2022-08-01T20:29:04;12.20;;;2.53;;
52894;SDS011;38759;53.396;6.722;2022-08-01T20:31:30;10.38;;;2.67;;
52894;SDS011;38759;53.396;6.722;2022-08-01T20:33:56;8.25;;;2.28;;
52894;SDS011;38759;53.396;6.722;2022-08-01T20:36:24;12.75;;;2.28;;
52894;SDS011;38759;53.396;6.722;2022-08-01T20:38:51;11.50;;;2.28;;
52894;SDS011;38759;53.396;6.722;2022-08-01T20:41:20;17.77;;;2.53;;
52894;SDS011;38759;53.396;6.722;2022-08-01T20:43:51;8.52;;;2.10;;
52894;SDS011;38759;53.396;6.722;2022-08-01T20:46:21;12.30;;;2.80;;
52894;SDS011;38759;53.396;6.722;2022-08-01T20:48:52;15.05;;;2.92;;
52894;SDS011;38759;53.396;6.722;2022-08-01T20:51:22;8.00;;;2.60;;
52894;SDS011;38759;53.396;6.722;2022-08-01T20:53:49;14.98;;;3.05;;
52894;SDS011;38759;53.396;6.722;2022-08-01T20:59:36;12.63;;;3.47;;
52894;SDS011;38759;53.396;6.722;2022-08-01T21:02:15;13.45;;;3.28;;
52894;SDS011;38759;53.396;6.722;2022-08-01T21:05:01;12.83;;;3.93;;
52894;SDS011;38759;53.396;6.722;2022-08-01T21:10:10;9.90;;;4.03;;
52894;SDS011;38759;53.396;6.722;2022-08-01T21:12:53;7.03;;;2.72;;
52894;SDS011;38759;53.396;6.722;2022-08-01T21:15:31;8.00;;;3.00;;
52894;SDS011;38759;53.396;6.722;2022-08-01T21:18:05;8.00;;;2.20;;
52894;SDS011;38759;53.396;6.722;2022-08-01T21:20:37;8.70;;;2.40;;
52894;SDS011;38759;53.396;6.722;2022-08-01T21:23:08;7.22;;;2.50;;
52894;SDS011;38759;53.396;6.722;2022-08-01T21:25:35;12.27;;;2.08;;
52894;SDS011;38759;53.396;6.722;2022-08-01T21:28:02;7.78;;;2.40;;
52894;SDS011;38759;53.396;6.722;2022-08-01T21:30:29;10.60;;;2.10;;
52894;SDS011;38759;53.396;6.722;2022-08-01T21:32:55;8.48;;;1.83;;
52894;SDS011;38759;53.396;6.722;2022-08-01T21:35:22;9.43;;;2.10;;
52894;SDS011;38759;53.396;6.722;2022-08-01T21:37:50;10.10;;;2.30;;
52894;SDS011;38759;53.396;6.722;2022-08-01T21:40:17;11.98;;;2.53;;
52894;SDS011;38759;53.396;6.722;2022-08-01T21:42:47;11.55;;;2.90;;
52894;SDS011;38759;53.396;6.722;2022-08-01T21:45:15;10.88;;;3.00;;
52894;SDS011;38759;53.396;6.722;2022-08-01T21:47:47;11.30;;;2.90;;
52894;SDS011;38759;53.396;6.722;2022-08-01T21:50:14;13.68;;;2.97;;
52894;SDS011;38759;53.396;6.722;2022-08-01T21:52:44;9.95;;;2.90;;
52894;SDS011;38759;53.396;6.722;2022-08-01T21:55:32;10.40;;;2.92;;
52894;SDS011;38759;53.396;6.722;2022-08-01T22:00:49;10.95;;;2.92;;
52894;SDS011;38759;53.396;6.722;2022-08-01T22:03:20;9.05;;;2.45;;
52894;SDS011;38759;53.396;6.722;2022-08-01T22:05:54;8.85;;;2.70;;
52894;SDS011;38759;53.396;6.722;2022-08-01T22:08:32;12.00;;;3.20;;
52894;SDS011;38759;53.396;6.722;2022-08-01T22:11:04;8.00;;;3.03;;
52894;SDS011;38759;53.396;6.722;2022-08-01T22:13:32;11.98;;;3.33;;
52894;SDS011;38759;53.396;6.722;2022-08-01T22:15:59;10.95;;;2.80;;
52894;SDS011;38759;53.396;6.722;2022-08-01T22:18:26;10.43;;;3.03;;
52894;SDS011;38759;53.396;6.722;2022-08-01T22:20:52;9.88;;;2.78;;
52894;SDS011;38759;53.396;6.722;2022-08-01T22:23:19;7.72;;;2.40;;
52894;SDS011;38759;53.396;6.722;2022-08-01T22:25:48;12.80;;;2.80;;
52894;SDS011;38759;53.396;6.722;2022-08-01T22:28:16;9.48;;;2.50;;
52894;SDS011;38759;53.396;6.722;2022-08-01T22:30:43;9.45;;;2.85;;
52894;SDS011;38759;53.396;6.722;2022-08-01T22:33:10;9.50;;;2.83;;
52894;SDS011;38759;53.396;6.722;2022-08-01T22:35:36;6.18;;;2.55;;
52894;SDS011;38759;53.396;6.722;2022-08-01T22:38:03;9.43;;;2.90;;
52894;SDS011;38759;53.396;6.722;2022-08-01T22:40:30;5.25;;;2.03;;
52894;SDS011;38759;53.396;6.722;2022-08-01T22:42:58;5.97;;;2.50;;
52894;SDS011;38759;53.396;6.722;2022-08-01T22:45:30;8.82;;;2.60;;
52894;SDS011;38759;53.396;6.722;2022-08-01T22:50:44;10.43;;;2.70;;
52894;SDS011;38759;53.396;6.722;2022-08-01T22:53:30;9.18;;;2.60;;
52894;SDS011;38759;53.396;6.722;2022-08-01T22:56:07;7.25;;;3.00;;
52894;SDS011;38759;53.396;6.722;2022-08-01T22:58:35;8.18;;;2.90;;
52894;SDS011;38759;53.396;6.722;2022-08-01T23:01:04;10.10;;;2.85;;
52894;SDS011;38759;53.396;6.722;2022-08-01T23:03:39;8.55;;;3.22;;
52894;SDS011;38759;53.396;6.722;2022-08-01T23:06:09;9.60;;;2.80;;
52894;SDS011;38759;53.396;6.722;2022-08-01T23:08:44;12.70;;;3.00;;
52894;SDS011;38759;53.396;6.722;2022-08-01T23:11:12;7.93;;;2.88;;
52894;SDS011;38759;53.396;6.722;2022-08-01T23:13:38;7.35;;;2.80;;
52894;SDS011;38759;53.396;6.722;2022-08-01T23:16:05;5.80;;;2.70;;
52894;SDS011;38759;53.396;6.722;2022-08-01T23:18:32;11.32;;;3.22;;
52894;SDS011;38759;53.396;6.722;2022-08-01T23:20:59;8.38;;;2.95;;
52894;SDS011;38759;53.396;6.722;2022-08-01T23:23:27;12.52;;;3.20;;
52894;SDS011;38759;53.396;6.722;2022-08-01T23:25:54;7.25;;;3.30;;
52894;SDS011;38759;53.396;6.722;2022-08-01T23:28:22;7.72;;;3.05;;
52894;SDS011;38759;53.396;6.722;2022-08-01T23:30:49;6.32;;;2.95;;
52894;SDS011;38759;53.396;6.722;2022-08-01T23:33:15;4.97;;;2.90;;
52894;SDS011;38759;53.396;6.722;2022-08-01T23:35:41;10.38;;;3.55;;
52894;SDS011;38759;53.396;6.722;2022-08-01T23:38:07;10.65;;;3.28;;
52894;SDS011;38759;53.396;6.722;2022-08-01T23:40:39;11.18;;;3.40;;
52894;SDS011;38759;53.396;6.722;2022-08-01T23:43:05;9.57;;;3.05;;
52894;SDS011;38759;53.396;6.722;2022-08-01T23:45:31;11.55;;;3.63;;
52894;SDS011;38759;53.396;6.722;2022-08-01T23:47:57;12.75;;;2.92;;
52894;SDS011;38759;53.396;6.722;2022-08-01T23:50:23;15.15;;;2.90;;
52894;SDS011;38759;53.396;6.722;2022-08-01T23:52:49;8.82;;;3.05;;
52894;SDS011;38759;53.396;6.722;2022-08-01T23:55:16;8.90;;;2.83;;
52894;SDS011;38759;53.396;6.722;2022-08-01T23:57:43;6.18;;;2.75;;
